Historyczne dane pomiarowe

Dodano dane terminowe – wersja testowa.

Dane z okresu 1951-2019

Wersja bazy: 1.34 [2019-03-16, lista zmian], aktualizacja planowana na 2019-04-15

Dane meteo z obszaru Polski uzyskane na podstawie danych udostępnionych przez Instytut Meteorologii i Gospodarki Wodnej – Państwowy Instytut Badawczy.

 

Wybierz Datę:    

       

TemperaturaWilgotnośćWiatrCiśnienieOpadyŚniegCzas trwania zjawisk
 Stacja t tx tn tng RH VA  wxwx mslp ppp RRR   cm mm wxwxwxwxwxwxwx
1956-11-09 -3.9 -1.2 -7.4-12.9 72.0- 5.0 1.7---- 0.0------------
1956-11-08 -3.5 0.2 -6.4 -8.9 74.3- 2.3 4.0---- 0.0-- 1---------
1956-11-07 -1.0 2.8 -4.5 -2.9 72.3- 2.3 6.0---- 0.4------------
1956-11-06 1.3 4.1 -0.1 -1.3 79.3- 5.7 8.0---- 0.0------------
1956-11-05 3.1 5.6 -2.4 -4.1 84.5- 7.7 5.7---- 0.5------------
1956-11-04 -0.3 4.0 -4.4-10.5 80.3- 0.7 2.7---- 0.0-- 1---------
1956-11-03 0.0 1.8 -3.6 -9.2 92.3- 7.3 1.3---- 0.3------------
1956-11-02 -0.6 3.7 -2.2 -1.4 97.5- 5.0 0.7---- 0.0-- 1---------
1956-11-01 -0.5 1.2 -6.7 -8.9 63.0- 7.3 9.0---- 0.6------------
1956-10-31 -5.5 -2.2 -8.3 -9.6 75.0- 0.7 3.7---- 0.0------------
1956-10-30 -0.7 4.8 -2.8 0.9 83.0- 8.0 6.7---- 0.0------------
1956-10-29 5.4 10.6 2.8 -0.2 85.0- 5.7 4.3---- 0.0------------
1956-10-28 9.9 10.6 8.5 8.2 97.5- 8.0 6.0---- 5.7------------
1956-10-27 9.7 12.0 7.6 7.6 91.0- 7.7 6.0---- 1.8------------
1956-10-26 8.0 9.7 3.5 -0.1 96.8- 8.0 1.0---- 1.7------------
1956-10-25 9.9 15.7 5.2 2.7 86.8- 4.0 2.7---- 0.0------------
1956-10-24 10.1 13.6 4.7 2.4 88.5- 4.7 3.7---- 0.0------------
1956-10-23 9.4 11.4 7.8 3.6 82.8- 7.7 2.7---- 0.0------------
1956-10-22 10.2 12.5 8.0 8.3 91.8- 7.7 2.7---- 0.0------------
1956-10-21 11.7 15.0 7.1 5.0 92.0- 2.3 2.0---- 0.0------------
1956-10-20 9.2 12.2 5.1 3.1 90.5- 6.3 2.3---- 0.0------------
1956-10-19 9.7 13.3 7.5 9.3 94.5- 7.7 4.0---- 0.9------------
1956-10-18 9.4 12.5 1.6 0.1 91.5- 8.0 2.0---- 1.7------------
1956-10-17 5.6 11.5 2.7 -2.0 82.5- 1.3 1.0---- 0.0------------
1956-10-16 6.2 10.2 -0.3 -4.1 84.8- 5.7 1.0---- 0.0------------
1956-10-15 5.0 11.1 1.0 -0.3 84.8- 1.7 3.7---- 0.0------------
1956-10-14 7.3 11.2 5.3 5.0 72.5- 2.7 8.0---- 0.0------------
1956-10-13 10.4 12.1 7.8 6.8 73.8- 7.7 10.0---- 10.0------------
1956-10-12 9.6 11.2 8.1 7.8 83.3- 6.7 6.3---- 0.0------------
1956-10-11 8.5 11.4 4.0 3.1 77.5- 6.3 6.0---- 0.0------------
1956-10-10 4.3 8.7 -1.6 -3.5 80.0- 4.3 2.7---- 0.0------------
1956-10-09 6.2 9.0 0.3 -1.5 89.8- 5.0 5.0---- 0.9------------
1956-10-08 4.4 8.5 2.0 0.8 88.3- 4.0 4.0---- 0.0------------
1956-10-07 6.9 8.2 3.6 3.7 83.8- 8.0 9.7---- 1.6------------
1956-10-06 8.0 9.8 5.9 3.8 96.5- 8.0 5.0---- 50.3------------
1956-10-05 9.5 14.7 7.5 5.5 90.3- 5.0 2.3---- 4.7------------
1956-10-04 8.8 11.6 3.4 -0.2 96.8- 6.0 1.3---- 0.5------------
1956-10-03 13.7 19.1 10.1 9.0 80.8- 5.3 6.3---- 0.0------------
1956-10-02 16.8 25.2 7.4 4.9 74.8- 3.0 4.3---- 0.0------------
1956-10-01 14.6 22.7 3.1 0.3 83.3- 2.7 3.0---- 0.0------------
1956-09-30 10.0 16.8 7.0 7.7 93.5- 4.0 3.0---- 0.0------------
1956-09-29 16.2 20.8 9.6 9.0 83.8- 7.0 6.0---- 0.7------------
1956-09-28 13.5 18.2 8.7 5.9 87.8- 4.7 4.7---- 0.0------------
1956-09-27 15.0 23.6 5.2 2.0 72.5- 2.0 3.3---- 0.4------------
1956-09-26 11.4 21.8 2.5 -0.9 80.3- 0.0 2.0---- 0.0------------
1956-09-25 9.0 17.4 0.6 -2.3 81.3- 0.7 3.0---- 0.0------------
1956-09-24 6.9 14.2 2.5 0.2 71.8- 0.0 4.3---- 0.0------------
1956-09-23 10.1 15.9 6.0 4.4 73.5- 2.3 3.7---- 0.0------------
1956-09-22 12.2 18.4 4.1 0.5 75.5- 0.7 2.7---- 0.0------------
1956-09-21 10.4 17.8 3.2 -0.9 80.5- 0.0 0.0---- 0.0------------
1956-09-20 9.9 16.7 1.4 -1.6 77.8- 4.3 0.7---- 0.0------------
1956-09-19 8.6 16.3 0.6 -1.1 81.8- 1.3 0.3---- 0.0------------
1956-09-18 7.8 14.0 3.9 2.4 83.3- 3.3 3.0---- 0.0------------
1956-09-17 8.9 14.3 7.3 5.8 76.0- 3.7 4.7---- 0.0------------
1956-09-16 10.6 12.6 5.4 3.5 79.0- 6.0 6.3---- 0.0------------
1956-09-15 10.1 14.2 5.9 2.8 87.5- 5.3 4.3---- 0.0------------
1956-09-14 11.2 15.5 5.5 3.6 77.5- 3.0 3.7---- 0.0------------
1956-09-13 9.3 13.4 7.2 5.7 84.0- 4.0 4.7---- 1.4------------
1956-09-12 10.9 15.6 8.6 8.0 91.5- 5.3 5.0---- 16.3------------
1956-09-11 12.7 15.1 11.6 12.1 96.5- 5.3 2.7---- 3.2------------
177.4 ms

 

Źródłem pochodzenia danych jest Instytut Meteorologii i Gospodarki Wodnej – Państwowy Instytut Badawczy. Dane Instytutu Meteorologii i Gospodarki Wodnej – Państwowego Instytutu Badawczego zostały przetworzone.

Dane źródłowe można odnaleźć na stronie https://dane.imgw.pl